Terminal Aerodrome Forecast
Issued by NWS

Home | Current Version | Previous Version | Text Only | Print | Product List | Glossary On
Versions: 1 2 3 4 5 6 7 8 9 10 11 12 13 14 15 16
000
FTUS45 KGJT 180104 AAA
TAFRIL
TAF AMD
KRIL 180104Z 1801/1824 29016G27KT P6SM -RA VCTS FEW040CB OVC050
      TEMPO 1802/1805 31026G47KT P6SM -SHRASN SCT030 OVC045
     FM180500 30021G37KT P6SM VCSH SCT040 BKN070
     FM180700 30013G24KT P6SM VCSH SCT045 BKN120
     FM180900 28009KT P6SM FEW050 SCT250
     FM181200 27004KT P6SM FEW060 FEW250=

USA.gov is the U.S. government's official web portal to all federal, state and local government web resources and services.